메인 페이지
METAR-TAF:

METAR-TAF

공항 :

기타큐슈 공항

기타큐슈, 일본

위도: 33-50N, 경도: 130-57E, 고도: 3m

현재 날씨관측

예보는 18분 전, 15:00시(UTC)에 발표되었습니다.
동남동11kt
온도 28°C
습도 79%
기압 1007 hPa
시정 10km 이상
고도 1500ft 상공 구름 조금
고도 9000ft 상공 구름 보통
구름 많음

METAR: RJFR 151500Z 12011KT 9999 FEW015 SCT090 BKN/// 28/24 Q1007

시각: 00:18 (15:18 UTC)

예보

예보는 4 시간 8분 전, 11:10시(UTC)에 발표되었습니다.
예보 대상 시간: 15일 12시부터 16일 18시까지 (UTC)
남동12kt
시정 10km 이상
고도 1500ft 상공 구름 조금
고도 3000ft 상공 구름 보통
전환 중
16일 00시부터 16일 03시까지 (UTC)
10kt
일시적
16일 03시부터 16일 09시까지 (UTC)
시정: 3000m
고도 1000ft 상공 구름 조금
고도 2000ft 상공 구름 보통
고도 3000ft 상공 구름 많음
고도 3000ft 상공 구름 조금, 적란운.
뇌우, 비, 박무

TAF: RJFR 151110Z 1512/1618 13012KT 9999 FEW015 SCT030 BECMG 1600/1603 01010KT TEMPO 1603/1609 3000 TSRA BR FEW010 SCT020 BKN030 FEW030CB

4,000개 이상의 공항 관측 자료 및 예보 (METAR 및 TAF 보고).

지도상에서 검색 가능한 기상관측소가 노란 점과 빨간 점으로 표시되어 있습니다.

기상관측소 명을 보려면 표시 위로 마우스를 이동하세요.

날씨 관측과 예보를 보려면 클릭하세요.

지도 변경 : 확대하려면 엑스 표시가 있는 녹색 버튼, 축소하려면 빼기 표시가 있는 녹색 버튼, 다음 페이지의 지도를 보려면 녹색 화살표를 클릭하세요.


METAR-TAF: